Terminal Aerodrome Forecast
Issued by NWS Lake Charles, LA

Home | Current Version | Previous Version | Text Only | Print | Product List | Glossary On
Versions: 1 2 3 4 5 6 7 8 9 10 11 12 13 14 15 16 17 18 19
000
FTUS44 KLCH 171200 AAB
TAFARA
TAF AMD
KARA 171257Z 1713/1812 10003KT P6SM SKC
     FM171800 18003KT P6SM VCTS SCT025CB BKN250
     FM180000 21002KT P6SM BKN250=

USA.gov is the U.S. government's official web portal to all federal, state and local government web resources and services.